Time;durP1;ratioP1;P1;durP2;ratioP2;P2;SDS_P1;SDS_P2;PMS_P1;PMS_P2;Temp;Humidity;BMP_temperature;BMP_pressure;BME280_temperature;BME280_humidity;BME280_pressure;Samples;Min_cycle;Max_cycle;Signal;HPM_P1;HPM_P2
2022/03/15 00:01:43;;;;;;;;;;;;;;;;;;6238866;22;19927;-77
2022/03/15 00:04:09;;;;;;;;;;;;;;;;;;6237866;23;19883;-78
2022/03/15 00:06:36;;;;;;;;;;;;;;;;;;6235129;23;19903;-77
2022/03/15 00:09:02;;;;;;;;;;;;;;;;;;6234208;23;19990;-79
2022/03/15 00:11:30;;;;;;;;;;;;;;;;;;6233111;23;19900;-78
2022/03/15 00:13:57;;;;;;;;;;;;;;;;;;6236871;23;19902;-78
2022/03/15 00:16:25;;;;;;;;;;;;;;;;;;6236170;23;19900;-78
2022/03/15 00:18:52;;;;;;;;;;;;;;;;;;6235741;23;19926;-78
2022/03/15 00:21:20;;;;;;;;;;;;;;;;;;6228045;23;19910;-77
2022/03/15 00:23:49;;;;;;;;;;;;;;;;;;6235513;23;20241;-80
2022/03/15 00:26:15;;;;;;;;;;;;;;;;;;6208584;23;19977;-81
2022/03/15 00:28:43;;;;;;;;;;;;;;;;;;6204912;23;20340;-79
2022/03/15 00:31:09;;;;;;;;;;;;;;;;;;6207816;23;19935;-79
2022/03/15 00:33:35;;;;;;;;;;;;;;;;;;6205502;23;19900;-81
2022/03/15 00:36:01;;;;;;;;;;;;;;;;;;6233404;23;19900;-81
2022/03/15 00:38:34;;;;;;;;;;;;;;;;;;6236937;22;19888;-80
2022/03/15 00:41:00;;;;;;;;;;;;;;;;;;6233123;23;19900;-78
2022/03/15 00:43:26;;;;;;;;;;;;;;;;;;6205141;23;19884;-80
2022/03/15 00:45:55;;;;;;;;;;;;;;;;;;6205339;23;19907;-81
2022/03/15 00:48:22;;;;;;;;;;;;;;;;;;6233238;23;19904;-77
2022/03/15 00:50:48;;;;;;;;;;;;;;;;;;6208366;23;19899;-77
2022/03/15 00:53:14;;;;;;;;;;;;;;;;;;6212487;23;19904;-81
2022/03/15 00:55:40;;;;;;;;;;;;;;;;;;6203840;23;19943;-77
2022/03/15 00:58:07;;;;;;;;;;;;;;;;;;6206932;23;20233;-79
2022/03/15 01:00:34;;;;;;;;;;;;;;;;;;6204727;23;19940;-77
2022/03/15 01:03:01;;;;;;;;;;;128.60;1382.40;;;;;;6205141;23;20022;-77
2022/03/15 01:05:27;;;;;;;;;;;;;;;;;;6207166;23;19911;-77
2022/03/15 01:07:53;;;;;;;;;;;;;;;;;;6234866;23;19900;-78
2022/03/15 01:10:19;;;;;;;;;;;;;;;;;;6205948;23;19934;-78
2022/03/15 01:12:45;;;;;;;;;;;;;;;;;;6206687;23;19899;-77
2022/03/15 01:15:11;;;;;;;;;;;;;;;;;;6209179;23;19900;-80
2022/03/15 01:17:38;;;;;;;;;;;;;;;;;;6229486;23;19907;-77
2022/03/15 01:20:11;;;;;;;;;;;128.40;1382.40;;;;;;6229974;23;19982;-79
2022/03/15 01:22:37;;;;;;;;;;;128.10;1408.00;;;;;;6229650;23;19917;-77
2022/03/15 01:25:03;;;;;;;;;;;128.00;1433.60;;;;;;6231205;23;20237;-79
2022/03/15 01:27:29;;;;;;;;;;;77.70;1408.00;;;;;;6236733;23;19900;-77
2022/03/15 01:29:57;;;;;;;;;;;103.30;1433.60;;;;;;6235802;23;19899;-80
2022/03/15 01:32:23;;;;;;;;;;;103.30;1433.60;;;;;;6233912;23;19900;-77
2022/03/15 01:34:51;;;;;;;;;;;103.30;1382.40;;;;;;6264109;23;19899;-79
2022/03/15 01:37:17;;;;;;;;;;;103.20;1382.40;;;;;;6261322;23;19899;-77
2022/03/15 01:39:43;;;;;;;;;;;103.10;1356.80;;;;;;6234729;23;19907;-77
2022/03/15 01:42:09;;;;;;;;;;;103.10;1408.00;;;;;;6262448;23;19927;-78
2022/03/15 01:44:35;;;;;;;;;;;103.00;1408.00;;;;;;6234241;23;19900;-77
2022/03/15 01:47:02;;;;;;;;;;;;;;;;;;6240057;23;19907;-77
2022/03/15 01:49:29;;;;;;;;;;;;;;;;;;6237322;23;19918;-77
2022/03/15 01:51:55;;;;;;;;;;;;;;;;;;6243153;23;19891;-80
2022/03/15 01:54:21;;;;;;;;;;;;;;;;;;6236959;23;19926;-78
2022/03/15 01:56:47;;;;;;;;;;;;;;;;;;6239314;23;20233;-78
2022/03/15 01:59:13;;;;;;;;;;;;;;;;;;6236075;23;19900;-80
2022/03/15 02:01:39;;;;;;;;;;;;;;;;;;6262101;22;19927;-77
2022/03/15 02:04:05;;;;;;;;;;;102.90;1382.40;;;;;;6236219;23;19947;-78
2022/03/15 02:06:34;;;;;;;;;;;102.60;1996.80;;;;;;6231456;23;19899;-77
2022/03/15 02:09:06;;;;;;;;;;;102.80;1433.60;;;;;;6262755;23;19907;-77
2022/03/15 02:11:35;;;;;;;;;;;102.70;1408.00;;;;;;6236480;23;19884;-81
2022/03/15 02:14:04;;;;;;;;;;;102.60;1459.20;;;;;;6264987;22;19903;-78
2022/03/15 02:16:36;;;;;;;;;;;77.40;1433.60;;;;;;6242833;23;20309;-81
2022/03/15 02:19:02;;;;;;;;;;;102.50;1433.60;;;;;;6241613;23;19931;-78
2022/03/15 02:21:31;;;;;;;;;;;102.50;1484.80;;;;;;6236086;23;19899;-77
2022/03/15 02:23:57;;;;;;;;;;;102.40;1459.20;;;;;;6236942;23;19904;-78
2022/03/15 02:26:23;;;;;;;;;;;128.00;1510.40;;;;;;6237191;23;19891;-80
2022/03/15 02:28:49;;;;;;;;;;;102.40;1536.00;;;;;;6265596;23;19899;-77
2022/03/15 02:31:16;;;;;;;;;;;;;;;;;;6263079;23;19904;-78
2022/03/15 02:33:43;;;;;;;;;;;;;;;;;;6261882;23;20305;-78
2022/03/15 02:36:10;;;;;;;;;;;;;;;;;;6266620;23;19883;-78
2022/03/15 02:38:36;;;;;;;;;;;;;;;;;;6236718;23;19890;-79
2022/03/15 02:41:02;;;;;;;;;;;;;;;;;;6232592;23;20305;-79
2022/03/15 02:43:28;;;;;;;;;;;;;;;;;;6237576;23;19903;-79
2022/03/15 02:45:54;;;;;;;;;;;;;;;;;;6233148;23;20002;-78
2022/03/15 02:48:20;;;;;;;;;;;;;;;;;;6266626;23;19922;-77
2022/03/15 02:50:47;;;;;;;;;;;;;;;;;;6233555;23;19907;-77
2022/03/15 02:53:14;;;;;;;;;;;;;;;;;;6236786;23;19906;-78
2022/03/15 02:55:40;;;;;;;;;;;;;;;;;;6239277;23;19899;-77
2022/03/15 02:58:06;;;;;;;;;;;;;;;;;;6263515;23;19911;-78
2022/03/15 03:00:33;;;;;;;;;;;;;;;;;;6235150;23;19899;-78
2022/03/15 03:02:59;;;;;;;;;;;;;;;;;;6237560;23;19906;-77
2022/03/15 03:05:26;;;;;;;;;;;;;;;;;;6261364;23;19964;-77
2022/03/15 03:07:52;;;;;;;;;;;;;;;;;;6235185;23;20273;-77
2022/03/15 03:10:18;;;;;;;;;;;;;;;;;;6235631;23;20253;-77
2022/03/15 03:12:45;;;;;;;;;;;77.60;1484.80;;;;;;6261016;23;19887;-77
2022/03/15 03:15:12;;;;;;;;;;;102.40;1510.40;;;;;;6237875;23;19900;-80
2022/03/15 03:17:41;;;;;;;;;;;77.40;1510.40;;;;;;6235540;23;19900;-77
2022/03/15 03:20:12;;;;;;;;;;;77.40;1510.40;;;;;;6232966;23;20327;-77
2022/03/15 03:22:41;;;;;;;;;;;77.30;1510.40;;;;;;6243292;23;19918;-77
2022/03/15 03:25:09;;;;;;;;;;;77.40;1561.60;;;;;;6203944;23;20237;-77
2022/03/15 03:27:35;;;;;;;;;;;77.40;1536.00;;;;;;6233162;23;19884;-77
2022/03/15 03:30:02;;;;;;;;;;;77.70;1561.60;;;;;;6202213;23;19884;-77
2022/03/15 03:32:28;;;;;;;;;;;77.40;1536.00;;;;;;6204761;23;19900;-77
2022/03/15 03:34:55;;;;;;;;;;;51.60;1561.60;;;;;;6227385;23;19900;-77
2022/03/15 03:37:22;;;;;;;;;;;77.30;1536.00;;;;;;6205895;23;19904;-77
2022/03/15 03:39:48;;;;;;;;;;;77.30;1561.60;;;;;;6205584;23;20210;-77
2022/03/15 03:42:14;;;;;;;;;;;77.00;1587.20;;;;;;6201636;23;19906;-80
2022/03/15 03:44:43;;;;;;;;;;;77.30;1587.20;;;;;;6201268;23;19952;-77
2022/03/15 03:47:10;;;;;;;;;;;77.30;1587.20;;;;;;6202180;23;20301;-78
2022/03/15 03:49:36;;;;;;;;;;;77.20;1587.20;;;;;;6229369;23;19915;-77
2022/03/15 03:52:05;;;;;;;;;;;51.80;1587.20;;;;;;6201860;23;19900;-79
2022/03/15 03:54:31;;;;;;;;;;;76.80;1561.60;;;;;;6235309;23;19903;-77
2022/03/15 03:56:57;;;;;;;;;;;77.20;1587.20;;;;;;6232246;23;19900;-77
2022/03/15 03:59:23;;;;;;;;;;;77.10;1587.20;;;;;;6231253;23;19924;-77
2022/03/15 04:01:50;;;;;;;;;;;;;;;;;;6204073;23;19907;-77
2022/03/15 04:04:16;;;;;;;;;;;;;;;;;;6231693;23;20219;-78
2022/03/15 04:06:43;;;;;;;;;;;;;;;;;;6203836;23;19908;-77
2022/03/15 04:09:09;;;;;;;;;;;;;;;;;;6206337;23;19900;-77
2022/03/15 04:11:36;;;;;;;;;;;;;;;;;;6206059;23;19903;-77
2022/03/15 04:14:03;;;;;;;;;;;77.30;1536.00;;;;;;6230134;23;19922;-77
2022/03/15 04:16:32;;;;;;;;;;;77.20;1817.60;;;;;;6205877;23;19907;-77
2022/03/15 04:18:58;;;;;;;;;;;77.10;1587.20;;;;;;6204457;23;19908;-77
2022/03/15 04:21:24;;;;;;;;;;;77.10;1587.20;;;;;;6205477;23;20225;-77
2022/03/15 04:23:51;;;;;;;;;;;77.10;1587.20;;;;;;6235110;23;19911;-77
2022/03/15 04:26:17;;;;;;;;;;;77.10;1561.60;;;;;;6236881;23;19911;-78
2022/03/15 04:28:43;;;;;;;;;;;77.10;1612.80;;;;;;6237682;23;19934;-77
2022/03/15 04:31:09;;;;;;;;;;;77.00;1612.80;;;;;;6260408;23;19978;-81
2022/03/15 04:33:35;;;;;;;;;;;77.10;1612.80;;;;;;6233198;22;19887;-81
2022/03/15 04:36:01;;;;;;;;;;;77.10;1587.20;;;;;;6232475;23;19907;-77
2022/03/15 04:38:33;;;;;;;;;;;77.10;1612.80;;;;;;6262288;23;19912;-77
2022/03/15 04:40:59;;;;;;;;;;;;;;;;;;6260665;23;19899;-77
2022/03/15 04:43:25;;;;;;;;;;;;;;;;;;6266284;23;19899;-77
2022/03/15 04:45:51;;;;;;;;;;;;;;;;;;6262246;22;19899;-77
2022/03/15 04:48:18;;;;;;;;;;;;;;;;;;6236075;23;19900;-78
2022/03/15 04:50:44;;;;;;;;;;;;;;;;;;6240028;23;19899;-82
2022/03/15 04:53:10;;;;;;;;;;;;;;;;;;6236697;23;19900;-80
2022/03/15 04:55:36;;;;;;;;;;;;;;;;;;6263255;23;19899;-81
2022/03/15 04:58:02;;;;;;;;;;;;;;;;;;6239730;22;19904;-77
2022/03/15 05:00:28;;;;;;;;;;;77.30;1587.20;;;;;;6239402;23;19888;-81
2022/03/15 05:03:19;;;;;;;;;;;77.10;1612.80;;;;;;6263009;23;19950;-79
2022/03/15 05:05:45;;;;;;;;;;;77.00;1587.20;;;;;;6262899;23;20313;-77
2022/03/15 05:08:12;;;;;;;;;;;77.00;1638.40;;;;;;6262889;23;19906;-81
2022/03/15 05:13:26;;;;;;;;;;;77.00;1587.20;;;;;;6273161;22;19926;-80
2022/03/15 05:15:57;;;;;;;;;;;77.00;1612.80;;;;;;6265963;22;19952;-82
2022/03/15 05:18:34;;;;;;;;;;;77.00;1612.80;;;;;;6272720;22;19888;-81
2022/03/15 05:21:28;;;;;;;;;;;77.00;1612.80;;;;;;6266600;22;19910;-83
2022/03/15 05:24:16;;;;;;;;;;;77.00;1638.40;;;;;;6244980;23;19961;-80
2022/03/15 05:26:45;;;;;;;;;;;77.00;1612.80;;;;;;6213138;23;20234;-78
2022/03/15 05:32:11;;;;;;;;;;;77.10;1612.80;;;;;;6241258;23;19911;-79
2022/03/15 05:34:37;;;;;;;;;;;77.20;1612.80;;;;;;6218438;23;19914;-78
2022/03/15 05:37:18;;;;;;;;;;;77.20;1638.40;;;;;;6230704;22;19900;-81
2022/03/15 05:39:44;;;;;;;;;;;77.20;1612.80;;;;;;6219673;23;19911;-83
2022/03/15 05:44:59;;;;;;;;;;;77.10;1612.80;;;;;;6272082;22;21247;-80
2022/03/15 05:47:27;;;;;;;;;;;77.40;1612.80;;;;;;6248802;22;19915;-81
2022/03/15 05:50:00;;;;;;;;;;;77.40;1587.20;;;;;;6272853;23;19926;-81
2022/03/15 05:52:34;;;;;;;;;;;77.50;1587.20;;;;;;6248723;22;19903;-81
2022/03/15 05:55:25;;;;;;;;;;;77.60;2227.20;;;;;;6248701;22;19955;-79
2022/03/15 06:01:41;;;;;;;;;;;102.40;1587.20;;;;;;6237472;22;19943;-79
2022/03/15 06:07:29;;;;;;;;;;;102.60;1561.60;;;;;;6258710;22;19899;-78
2022/03/15 06:10:16;;;;;;;;;;;102.70;1561.60;;;;;;6219363;22;19898;-80
2022/03/15 06:13:03;;;;;;;;;;;102.70;1561.60;;;;;;6211615;22;19920;-78
2022/03/15 06:15:31;;;;;;;;;;;102.80;1561.60;;;;;;6217407;22;19888;-78
2022/03/15 06:18:02;;;;;;;;;;;;;;;;;;6213481;22;19888;-80
2022/03/15 06:20:48;;;;;;;;;;;;;;;;;;6243571;22;19959;-78
2022/03/15 06:26:33;;;;;;;;;;;103.30;1510.40;;;;;;6271835;22;19922;-81
2022/03/15 06:29:07;;;;;;;;;;;128.50;1561.60;;;;;;6271346;22;19940;-79
2022/03/15 06:31:33;;;;;;;;;;;128.00;1510.40;;;;;;6244238;23;19946;-79
2022/03/15 06:34:00;;;;;;;;;;;128.00;1561.60;;;;;;6241059;22;19935;-80
2022/03/15 06:36:44;;;;;;;;;;;;;;;;;;6213312;23;19890;-81
2022/03/15 06:39:22;;;;;;;;;;;;;;;;;;6187180;23;19912;-83
2022/03/15 06:41:58;;;;;;;;;;;;;;;;;;6211724;23;19911;-82
2022/03/15 06:44:44;;;;;;;;;;;;;;;;;;6268009;22;19935;-78
2022/03/15 06:47:12;;;;;;;;;;;;;;;;;;6233477;22;19919;-78
2022/03/15 06:49:38;;;;;;;;;;;;;;;;;;6235338;22;20388;-78
2022/03/15 06:52:04;;;;;;;;;;;;;;;;;;6228121;22;19908;-78
2022/03/15 06:54:31;;;;;;;;;;;;;;;;;;6231795;23;19931;-78
2022/03/15 06:56:58;;;;;;;;;;;;;;;;;;6235410;23;19923;-78
2022/03/15 06:59:29;;;;;;;;;;;;;;;;;;6235446;22;19907;-78
2022/03/15 07:02:01;;;;;;;;;;;;;;;;;;6234073;23;20337;-78
2022/03/15 07:04:36;;;;;;;;;;;;;;;;;;6237466;22;19911;-78
2022/03/15 07:07:08;;;;;;;;;;;;;;;;;;6239481;22;19943;-79
2022/03/15 07:09:37;;;;;;;;;;;;;;;;;;6243308;22;19904;-79
2022/03/15 07:15:26;;;;;;;;;;;;;;;;;;6243424;22;19895;-81
2022/03/15 07:26:21;;;;;;;;;;;179.80;1408.00;;;;;;6243071;22;19906;-81
2022/03/15 07:29:26;;;;;;;;;;;179.70;1408.00;;;;;;6238735;22;19911;-79
2022/03/15 08:28:56;;;;;;;;;;;384.50;896.00;;;;;;6245957;23;19915;-87
2022/03/15 08:31:22;;;;;;;;;;;461.60;819.20;;;;;;6219972;23;19904;-88
2022/03/15 08:33:47;;;;;;;;;;;512.10;742.40;;;;;;6219839;23;19900;-87
2022/03/15 08:36:13;;;;;;;;;;;538.20;716.80;;;;;;6246560;23;19903;-87
2022/03/15 08:38:39;;;;;;;;;;;563.70;742.40;;;;;;6219831;23;20262;-88
2022/03/15 08:41:06;;;;;;;;;;;588.80;691.20;;;;;;6246518;23;20236;-85
2022/03/15 08:43:31;;;;;;;;;;;614.50;640.00;;;;;;6218881;23;20066;-83
2022/03/15 08:45:57;;;;;;;;;;;640.30;614.40;;;;;;6248630;23;19907;-86
2022/03/15 08:48:23;;;;;;;;;;;665.60;588.80;;;;;;6221866;23;19982;-81
2022/03/15 08:50:48;;;;;;;;;;;666.30;537.60;;;;;;6221678;23;20540;-82
2022/03/15 08:53:14;;;;;;;;;;;691.60;537.60;;;;;;6222139;23;19899;-84
2022/03/15 08:55:40;;;;;;;;;;;717.10;537.60;;;;;;6221318;23;19934;-83
2022/03/15 08:58:06;;;;;;;;;;;717.20;486.40;;;;;;6221548;23;19907;-85
2022/03/15 09:00:31;;;;;;;;;;;717.50;512.00;;;;;;6221028;23;19899;-81
2022/03/15 09:02:57;;;;;;;;;;;742.60;512.00;;;;;;6221061;23;20316;-84
2022/03/15 09:05:23;;;;;;;;;;;743.30;486.40;;;;;;6220587;23;20248;-84
2022/03/15 09:07:51;;;;;;;;;;;768.60;460.80;;;;;;6221393;23;20340;-82
2022/03/15 09:10:18;;;;;;;;;;;768.50;435.20;;;;;;6221454;23;20236;-83
2022/03/15 09:12:44;;;;;;;;;;;768.70;435.20;;;;;;6221471;23;19904;-84
2022/03/15 09:15:09;;;;;;;;;;;768.50;435.20;;;;;;6248413;23;19899;-85
2022/03/15 09:17:35;;;;;;;;;;;768.90;435.20;;;;;;6248203;23;19899;-84
2022/03/15 09:20:01;;;;;;;;;;;768.80;435.20;;;;;;6221009;23;19910;-85
2022/03/15 09:22:26;;;;;;;;;;;768.40;409.60;;;;;;6247309;23;20302;-84
2022/03/15 09:24:52;;;;;;;;;;;768.20;435.20;;;;;;6221018;23;19911;-85
2022/03/15 09:27:18;;;;;;;;;;;768.40;435.20;;;;;;6221603;23;19903;-85
2022/03/15 09:29:43;;;;;;;;;;;793.80;435.20;;;;;;6248262;23;19938;-80
2022/03/15 09:32:10;;;;;;;;;;;794.30;409.60;;;;;;6221688;23;20232;-85
2022/03/15 09:34:37;;;;;;;;;;;819.70;384.00;;;;;;6221542;23;19899;-85
2022/03/15 09:37:03;;;;;;;;;;;844.80;409.60;;;;;;6248781;23;19954;-91
2022/03/15 09:39:29;;;;;;;;;;;845.60;384.00;;;;;;6221277;23;19899;-80
2022/03/15 09:41:57;;;;;;;;;;;870.90;358.40;;;;;;6247877;23;20276;-82
2022/03/15 09:44:25;;;;;;;;;;;870.70;358.40;;;;;;6220828;23;19903;-82
2022/03/15 09:46:51;;;;;;;;;;;871.00;358.40;;;;;;6217398;23;19908;-87
2022/03/15 09:49:18;;;;;;;;;;;871.00;358.40;;;;;;6220340;23;20298;-85
2022/03/15 09:51:47;;;;;;;;;;;870.90;332.80;;;;;;6220838;23;19906;-81
2022/03/15 09:54:13;;;;;;;;;;;870.70;358.40;;;;;;6211285;23;19904;-82
2022/03/15 09:56:39;;;;;;;;;;;896.00;332.80;;;;;;6247948;23;20271;-84
2022/03/15 09:59:16;;;;;;;;;;;921.60;332.80;;;;;;6220945;23;19986;-81
2022/03/15 10:01:46;;;;;;;;;;;922.40;332.80;;;;;;6220401;23;19899;-83
2022/03/15 10:04:12;;;;;;;;;;;948.00;307.20;;;;;;6247833;23;20439;-83
2022/03/15 10:06:38;;;;;;;;;;;947.30;307.20;;;;;;6247928;23;19946;-81
2022/03/15 10:09:04;;;;;;;;;;;922.50;332.80;;;;;;6247712;23;19899;-85
2022/03/15 10:11:30;;;;;;;;;;;922.30;332.80;;;;;;6220832;23;20288;-82
2022/03/15 10:13:55;;;;;;;;;;;947.50;307.20;;;;;;6220869;23;19982;-82
2022/03/15 10:16:29;;;;;;;;;;;947.30;307.20;;;;;;6247740;23;20301;-85
2022/03/15 10:18:56;;;;;;;;;;;948.00;307.20;;;;;;6247599;23;19900;-82
2022/03/15 10:21:25;;;;;;;;;;;973.00;307.20;;;;;;6247161;23;20293;-84
2022/03/15 10:23:57;;;;;;;;;;;947.80;307.20;;;;;;6219924;23;19906;-82
2022/03/15 10:26:23;;;;;;;;;;;870.80;358.40;;;;;;6220315;23;19919;-82
2022/03/15 10:28:49;;;;;;;;;;;794.30;384.00;;;;;;6220459;23;19945;-86
2022/03/15 10:31:16;;;;;;;;;;;742.90;435.20;;;;;;6247329;23;19900;-83
2022/03/15 10:33:42;;;;;;;;;;;691.90;435.20;;;;;;6220940;23;19978;-80
2022/03/15 10:36:17;;;;;;;;;;;666.30;435.20;;;;;;6219805;23;19900;-81
2022/03/15 10:38:51;;;;;;;;;;;665.70;486.40;;;;;;6220292;23;19910;-81
2022/03/15 10:41:17;;;;;;;;;;;640.50;460.80;;;;;;6246299;23;19900;-80
2022/03/15 10:43:43;;;;;;;;;;;640.10;460.80;;;;;;6220439;23;19903;-81
2022/03/15 10:46:12;;;;;;;;;;;615.20;460.80;;;;;;6220587;23;19914;-82
2022/03/15 10:48:38;;;;;;;;;;;614.70;486.40;;;;;;6220575;23;19903;-80
2022/03/15 10:51:11;;;;;;;;;;;614.40;486.40;;;;;;6220616;23;19900;-81
2022/03/15 10:53:38;;;;;;;;;;;589.70;512.00;;;;;;6220586;23;19900;-83
2022/03/15 10:56:13;;;;;;;;;;;589.50;512.00;;;;;;6220621;23;19903;-83
2022/03/15 10:58:48;;;;;;;;;;;589.00;537.60;;;;;;6247353;23;19899;-81
2022/03/15 11:01:16;;;;;;;;;;;588.80;537.60;;;;;;6220427;23;19911;-83
2022/03/15 11:03:51;;;;;;;;;;;588.80;537.60;;;;;;6247302;23;19945;-80
2022/03/15 11:06:27;;;;;;;;;;;588.80;537.60;;;;;;6220183;23;19914;-80
2022/03/15 11:08:53;;;;;;;;;;;564.00;537.60;;;;;;6220625;23;20144;-80
2022/03/15 11:11:25;;;;;;;;;;;564.10;537.60;;;;;;6220461;23;19899;-83
2022/03/15 11:13:57;;;;;;;;;;;588.80;563.20;;;;;;6220340;23;19900;-80
2022/03/15 11:16:23;;;;;;;;;;;564.10;537.60;;;;;;6247282;23;19910;-80
2022/03/15 11:18:50;;;;;;;;;;;564.10;537.60;;;;;;6220244;23;19899;-80
2022/03/15 11:21:17;;;;;;;;;;;588.80;537.60;;;;;;6247392;23;19899;-80
2022/03/15 11:23:44;;;;;;;;;;;588.80;537.60;;;;;;6220318;23;19899;-80
2022/03/15 11:26:12;;;;;;;;;;;564.10;563.20;;;;;;6192874;23;19946;-80
2022/03/15 11:28:38;;;;;;;;;;;563.90;563.20;;;;;;6216761;23;19904;-83
2022/03/15 11:31:04;;;;;;;;;;;563.90;563.20;;;;;;6190138;23;20331;-80
2022/03/15 11:33:31;;;;;;;;;;;563.80;563.20;;;;;;6190034;23;19900;-81
2022/03/15 11:36:00;;;;;;;;;;;563.30;588.80;;;;;;6190034;23;19907;-80
2022/03/15 11:38:26;;;;;;;;;;;563.20;563.20;;;;;;6216586;23;19900;-81
2022/03/15 11:40:54;;;;;;;;;;;538.40;563.20;;;;;;6188605;23;20273;-81
2022/03/15 11:43:20;;;;;;;;;;;538.40;665.60;;;;;;6188731;23;19899;-80
2022/03/15 11:45:58;;;;;;;;;;;538.10;563.20;;;;;;6188107;23;20349;-80
2022/03/15 11:48:40;;;;;;;;;;;537.60;614.40;;;;;;6216570;23;19907;-80
2022/03/15 11:51:09;;;;;;;;;;;512.70;588.80;;;;;;6182855;23;19965;-80
2022/03/15 11:53:53;;;;;;;;;;;512.60;588.80;;;;;;6215059;23;19900;-81
2022/03/15 11:56:57;;;;;;;;;;;537.60;614.40;;;;;;6216250;23;20321;-81
2022/03/15 11:59:23;;;;;;;;;;;537.70;614.40;;;;;;6067054;23;19905;-79
2022/03/15 12:01:49;;;;;;;;;;;537.90;614.40;;;;;;6066682;23;20031;-80
2022/03/15 12:04:16;;;;;;;;;;;538.00;588.80;;;;;;6066889;23;19902;-80
2022/03/15 12:12:48;;;;;;;;;;;512.40;614.40;;;;;;6066448;23;19908;-82
2022/03/15 12:15:15;;;;;;;;;;;512.20;614.40;;;;;;6066591;23;19929;-81
2022/03/15 12:17:41;;;;;;;;;;;512.40;614.40;;;;;;6043481;23;19902;-81
2022/03/15 12:20:21;;;;;;;;;;;512.60;640.00;;;;;;6070268;23;19901;-86
2022/03/15 12:22:57;;;;;;;;;;;512.70;614.40;;;;;;6044606;23;19989;-85
2022/03/15 12:25:33;;;;;;;;;;;512.70;614.40;;;;;;6060982;23;19913;-86
2022/03/15 12:28:03;;;;;;;;;;;512.80;614.40;;;;;;6073365;23;19968;-87
2022/03/15 12:30:30;;;;;;;;;;;512.80;614.40;;;;;;6195408;23;19923;-81
2022/03/15 12:32:57;;;;;;;;;;;512.80;614.40;;;;;;6249114;23;20297;-81
2022/03/15 12:35:28;;;;;;;;;;;537.60;640.00;;;;;;6248718;23;20021;-85
2022/03/15 12:38:04;;;;;;;;;;;512.90;588.80;;;;;;6222041;23;20309;-86
2022/03/15 12:40:30;;;;;;;;;;;512.70;588.80;;;;;;6222113;23;19900;-83
2022/03/15 12:42:58;;;;;;;;;;;512.80;588.80;;;;;;6221849;23;19900;-79
2022/03/15 12:45:24;;;;;;;;;;;537.60;640.00;;;;;;6221724;23;19919;-84
2022/03/15 12:47:51;;;;;;;;;;;538.30;588.80;;;;;;6248645;23;19907;-84
2022/03/15 12:50:21;;;;;;;;;;;588.80;588.80;;;;;;6221951;23;19986;-83
2022/03/15 12:52:51;;;;;;;;;;;614.40;537.60;;;;;;6221905;23;19899;-84
2022/03/15 12:55:19;;;;;;;;;;;640.60;512.00;;;;;;6221767;23;19934;-79
2022/03/15 12:57:46;;;;;;;;;;;666.40;486.40;;;;;;6221591;23;20395;-83
2022/03/15 13:00:14;;;;;;;;;;;640.80;460.80;;;;;;6221529;23;19974;-85
2022/03/15 13:02:40;;;;;;;;;;;665.70;486.40;;;;;;6248324;23;19922;-79
2022/03/15 13:05:14;;;;;;;;;;;640.70;486.40;;;;;;6247991;23;20309;-79
2022/03/15 13:07:40;;;;;;;;;;;640.40;460.80;;;;;;6247519;23;20293;-79
2022/03/15 13:10:09;;;;;;;;;;;640.10;486.40;;;;;;6247017;23;19899;-79
2022/03/15 13:12:34;;;;;;;;;;;614.80;512.00;;;;;;6248325;23;19953;-78
2022/03/15 13:15:00;;;;;;;;;;;589.40;563.20;;;;;;6221428;23;19978;-79
2022/03/15 13:17:29;;;;;;;;;;;588.90;537.60;;;;;;6248295;23;20373;-80
2022/03/15 13:19:55;;;;;;;;;;;563.60;588.80;;;;;;6248201;23;19899;-79
2022/03/15 13:22:29;;;;;;;;;;;538.50;563.20;;;;;;6221294;23;19910;-79
2022/03/15 13:25:01;;;;;;;;;;;537.90;588.80;;;;;;6247893;23;20321;-80
2022/03/15 13:27:49;;;;;;;;;;;538.00;614.40;;;;;;6248276;23;19978;-80
2022/03/15 13:30:15;;;;;;;;;;;563.40;588.80;;;;;;6246578;23;19899;-80
2022/03/15 13:32:41;;;;;;;;;;;640.00;512.00;;;;;;6221205;23;19899;-79
2022/03/15 13:35:07;;;;;;;;;;;666.20;486.40;;;;;;6247078;23;19965;-80
2022/03/15 13:37:34;;;;;;;;;;;691.20;460.80;;;;;;6246106;23;19903;-79
2022/03/15 13:40:02;;;;;;;;;;;691.30;435.20;;;;;;6220861;23;20280;-78
2022/03/15 13:42:28;;;;;;;;;;;691.90;435.20;;;;;;6248000;23;19899;-79
2022/03/15 13:44:54;;;;;;;;;;;716.80;460.80;;;;;;6221157;23;19956;-79
2022/03/15 13:47:23;;;;;;;;;;;691.60;435.20;;;;;;6247997;23;19908;-78
2022/03/15 13:49:50;;;;;;;;;;;691.40;435.20;;;;;;6221187;23;20330;-78
2022/03/15 13:52:16;;;;;;;;;;;691.70;435.20;;;;;;6248345;23;19937;-80
2022/03/15 13:55:04;;;;;;;;;;;716.80;460.80;;;;;;6247734;23;19899;-79
2022/03/15 13:57:31;;;;;;;;;;;716.80;435.20;;;;;;6221128;23;19899;-79
2022/03/15 13:59:57;;;;;;;;;;;717.10;435.20;;;;;;6220862;23;19946;-79
2022/03/15 14:02:22;;;;;;;;;;;716.80;435.20;;;;;;6246330;23;19899;-79
2022/03/15 14:04:57;;;;;;;;;;;666.50;435.20;;;;;;6247833;23;19899;-78
2022/03/15 14:07:23;;;;;;;;;;;640.10;486.40;;;;;;6220630;23;19908;-82
2022/03/15 14:09:49;;;;;;;;;;;;;;;;;;6220885;23;19907;-87
2022/03/15 14:12:18;;;;;;;;;;;588.80;563.20;;;;;;6247949;23;19896;-83
2022/03/15 14:14:51;;;;;;;;;;;563.40;614.40;;;;;;6221179;23;19909;-86
2022/03/15 14:17:22;;;;;;;;;;;538.50;614.40;;;;;;6220788;23;19899;-87
2022/03/15 14:19:50;;;;;;;;;;;538.10;640.00;;;;;;6217772;23;19900;-86
2022/03/15 14:22:16;;;;;;;;;;;;;;;;;;6221046;23;19899;-83
2022/03/15 14:24:45;;;;;;;;;;;512.90;588.80;;;;;;6220642;23;19918;-84
2022/03/15 14:27:12;;;;;;;;;;;512.70;614.40;;;;;;6220480;23;20317;-84
2022/03/15 14:29:46;;;;;;;;;;;512.40;640.00;;;;;;6220360;23;19899;-84
2022/03/15 14:32:12;;;;;;;;;;;512.10;640.00;;;;;;6220568;23;19949;-82
2022/03/15 14:34:49;;;;;;;;;;;512.00;665.60;;;;;;6246704;23;19919;-83
2022/03/15 14:37:16;;;;;;;;;;;487.10;691.20;;;;;;6220788;23;19900;-83
2022/03/15 14:39:46;;;;;;;;;;;487.00;691.20;;;;;;6220373;23;19900;-84
2022/03/15 14:42:12;;;;;;;;;;;486.70;665.60;;;;;;6246834;23;20321;-84
2022/03/15 14:44:39;;;;;;;;;;;486.60;691.20;;;;;;6220673;23;19931;-84
2022/03/15 14:47:15;;;;;;;;;;;486.40;691.20;;;;;;6220829;23;20352;-83
2022/03/15 14:49:41;;;;;;;;;;;486.40;691.20;;;;;;6220996;23;20224;-84
2022/03/15 14:52:08;;;;;;;;;;;486.40;691.20;;;;;;6220621;23;20275;-85
2022/03/15 14:54:35;;;;;;;;;;;461.70;691.20;;;;;;6220807;23;19904;-82
2022/03/15 14:57:08;;;;;;;;;;;486.40;691.20;;;;;;6247679;23;20328;-85
2022/03/15 14:59:34;;;;;;;;;;;486.40;691.20;;;;;;6247693;23;19911;-84
2022/03/15 15:02:00;;;;;;;;;;;461.70;716.80;;;;;;6220639;23;20306;-83
2022/03/15 15:04:27;;;;;;;;;;;461.60;742.40;;;;;;6220470;23;19900;-84
2022/03/15 15:06:55;;;;;;;;;;;461.60;716.80;;;;;;6220779;23;19912;-83
2022/03/15 15:09:20;;;;;;;;;;;461.30;716.80;;;;;;6247124;23;19903;-84
2022/03/15 15:11:46;;;;;;;;;;;461.10;742.40;;;;;;6247276;23;19942;-85
2022/03/15 15:14:12;;;;;;;;;;;461.20;742.40;;;;;;6220750;23;20225;-83
2022/03/15 15:16:40;;;;;;;;;;;461.20;768.00;;;;;;6220484;23;19899;-85
2022/03/15 15:19:07;;;;;;;;;;;460.90;768.00;;;;;;6247427;23;19969;-84
2022/03/15 15:21:33;;;;;;;;;;;460.90;742.40;;;;;;6247234;23;19922;-83
2022/03/15 15:23:59;;;;;;;;;;;460.80;768.00;;;;;;6219986;23;19949;-86
2022/03/15 15:26:25;;;;;;;;;;;460.90;768.00;;;;;;6220093;23;20272;-85
2022/03/15 15:29:01;;;;;;;;;;;460.90;768.00;;;;;;6247602;23;19899;-85
2022/03/15 15:31:26;;;;;;;;;;;460.80;768.00;;;;;;6220349;23;19906;-85
2022/03/15 15:33:52;;;;;;;;;;;436.10;742.40;;;;;;6247311;23;19899;-85
2022/03/15 15:36:20;;;;;;;;;;;436.00;716.80;;;;;;6220275;23;20292;-84
2022/03/15 15:38:47;;;;;;;;;;;435.90;716.80;;;;;;6245598;23;19900;-87
2022/03/15 15:41:15;;;;;;;;;;;435.80;742.40;;;;;;6220953;23;19915;-87
2022/03/15 15:43:43;;;;;;;;;;;435.60;768.00;;;;;;6247316;23;19906;-88
2022/03/15 15:46:11;;;;;;;;;;;435.50;742.40;;;;;;6220409;23;19907;-88
2022/03/15 15:48:36;;;;;;;;;;;435.30;768.00;;;;;;6247532;23;19899;-86
2022/03/15 15:51:03;;;;;;;;;;;;;;;;;;6220589;23;19985;-85
2022/03/15 15:53:29;;;;;;;;;;;435.20;844.80;;;;;;6220070;23;19950;-87
2022/03/15 15:55:55;;;;;;;;;;;410.30;793.60;;;;;;6220502;23;19899;-88
2022/03/15 15:58:22;;;;;;;;;;;410.20;793.60;;;;;;6247074;23;20313;-88
2022/03/15 16:00:48;;;;;;;;;;;410.00;768.00;;;;;;6246746;23;19905;-88
2022/03/15 16:03:14;;;;;;;;;;;409.90;793.60;;;;;;6247512;23;19942;-86
2022/03/15 16:05:40;;;;;;;;;;;409.90;793.60;;;;;;6245908;23;20214;-87
2022/03/15 16:08:08;;;;;;;;;;;409.70;793.60;;;;;;6245657;23;20265;-87
2022/03/15 16:10:35;;;;;;;;;;;409.60;819.20;;;;;;6220241;23;19986;-87